Scott Bar, California
Current Conditions -  °F | °C
As of 5:53 AM on Saturday 25 Oct 2014 (Local Time) from KSIY Reporting Station
Light Rain Light Rain  
Wind Chill: 52°   Ceiling: 6500
Heat Index: 52°   Visibility: 10mi
Dew Point: 48°   Wind: 21mph
Humidity: 86%   Direction: 170°S
Pressure: 29.68"   Gusts: NA
Location:  41.74°N, 123°W
Report Text: KSIY 251253Z AUTO 17018KT 10SM -RA BKN065 OVC075 11/09 A2968 RMK AO2 PK WND 17041/1157 RAB1155 SLP049 P0002 T01110089 $
Loading
Personal Weather Stations






























Interactive Weather Map New forecast layout! Learn more

10-Day Weather Forecast

Advertisements
Track Severe Weather on mobile